createdAt,value
2023-05-18T00:01:46.029Z,2.60
2023-05-18T00:04:13.863Z,3.13
2023-05-18T00:06:42.462Z,2.85
2023-05-18T00:09:10.272Z,2.72
2023-05-18T00:11:40.995Z,3.08
2023-05-18T00:14:10.220Z,2.80
2023-05-18T00:16:38.140Z,2.97
2023-05-18T00:19:06.093Z,3.40
2023-05-18T00:21:33.993Z,2.78
2023-05-18T00:24:01.859Z,3.08
2023-05-18T00:26:29.629Z,2.70
2023-05-18T00:28:57.749Z,3.42
2023-05-18T00:31:28.408Z,2.92
2023-05-18T00:33:56.244Z,3.22
2023-05-18T00:36:24.057Z,3.13
2023-05-18T00:38:53.363Z,2.95
2023-05-18T00:41:21.553Z,2.85
2023-05-18T00:43:50.462Z,3.10
2023-05-18T00:46:18.307Z,3.30
2023-05-18T00:48:48.158Z,3.20
2023-05-18T00:51:16.982Z,3.08
2023-05-18T00:53:45.229Z,3.50
2023-05-18T00:56:13.283Z,2.90
2023-05-18T00:58:41.423Z,3.38
2023-05-18T01:01:10.532Z,3.67
2023-05-18T01:03:39.083Z,3.45
2023-05-18T01:06:10.471Z,3.40
2023-05-18T01:08:38.668Z,3.30
2023-05-18T01:11:20.083Z,3.30
2023-05-18T01:13:57.091Z,3.38
2023-05-18T01:19:01.794Z,3.00
2023-05-18T01:21:46.327Z,3.10
2023-05-18T01:24:26.497Z,3.30
2023-05-18T01:26:57.778Z,3.20
2023-05-18T01:29:27.731Z,3.13
2023-05-18T01:31:55.568Z,3.13
2023-05-18T01:34:23.579Z,3.55
2023-05-18T01:36:52.046Z,3.42
2023-05-18T01:39:20.454Z,3.30
2023-05-18T01:41:56.072Z,3.40
2023-05-18T01:44:32.921Z,3.05
2023-05-18T01:47:04.299Z,3.08
2023-05-18T01:49:36.687Z,3.22
2023-05-18T01:52:08.881Z,3.03
2023-05-18T01:54:38.583Z,3.28
2023-05-18T01:57:09.560Z,3.08
2023-05-18T01:59:39.710Z,3.45
2023-05-18T02:02:07.756Z,3.15
2023-05-18T02:04:37.335Z,3.40
2023-05-18T02:07:05.896Z,3.30
2023-05-18T02:09:33.699Z,3.85
2023-05-18T02:12:01.598Z,3.20
2023-05-18T02:14:29.472Z,3.47
2023-05-18T02:16:58.856Z,3.17
2023-05-18T02:19:26.738Z,3.78
2023-05-18T02:21:54.963Z,4.22
2023-05-18T02:24:23.166Z,3.42
2023-05-18T02:26:51.150Z,3.50
2023-05-18T02:29:20.946Z,3.40
2023-05-18T02:31:48.767Z,2.97
2023-05-18T02:34:18.773Z,3.30
2023-05-18T02:36:46.579Z,3.67
2023-05-18T02:39:14.448Z,3.45
2023-05-18T02:41:42.304Z,3.50
2023-05-18T02:44:12.330Z,3.45
2023-05-18T02:46:40.472Z,3.60
2023-05-18T02:49:08.380Z,3.63
2023-05-18T02:51:37.537Z,3.42
2023-05-18T02:54:05.577Z,3.60
2023-05-18T02:56:36.412Z,3.45
2023-05-18T02:59:22.816Z,3.30
2023-05-18T03:01:51.027Z,3.22
2023-05-18T03:04:19.978Z,3.08
2023-05-18T03:06:53.647Z,2.97
2023-05-18T03:09:23.598Z,3.10
2023-05-18T03:11:54.451Z,4.03
2023-05-18T03:14:22.337Z,3.55
2023-05-18T03:16:53.733Z,3.45
2023-05-18T03:19:22.694Z,4.00
2023-05-18T03:21:50.887Z,3.53
2023-05-18T03:24:20.266Z,3.58
2023-05-18T03:26:50.072Z,3.20
2023-05-18T03:29:17.925Z,3.65
2023-05-18T03:31:45.923Z,3.92
2023-05-18T03:34:14.681Z,3.85
2023-05-18T03:36:47.459Z,4.03
2023-05-18T03:39:15.879Z,3.72
2023-05-18T03:41:45.163Z,3.58
2023-05-18T03:44:13.306Z,3.22
2023-05-18T03:46:41.728Z,3.55
2023-05-18T03:49:09.731Z,3.40
2023-05-18T03:51:42.006Z,3.65
2023-05-18T03:54:09.822Z,3.90
2023-05-18T03:56:37.680Z,3.13
2023-05-18T03:59:06.814Z,3.38
2023-05-18T04:01:35.340Z,3.55
2023-05-18T04:04:03.253Z,3.05
2023-05-18T04:06:31.180Z,2.80
2023-05-18T04:09:02.673Z,3.40
2023-05-18T04:11:30.559Z,3.15
2023-05-18T04:14:00.951Z,3.05
2023-05-18T04:16:30.272Z,3.72
2023-05-18T04:18:58.105Z,3.13
2023-05-18T04:21:25.925Z,3.38
2023-05-18T04:23:53.754Z,3.00
2023-05-18T04:26:22.163Z,3.03
2023-05-18T04:28:50.104Z,3.33
2023-05-18T04:31:18.461Z,3.50
2023-05-18T04:33:47.724Z,4.03
2023-05-18T04:38:50.867Z,3.10
2023-05-18T04:41:20.411Z,3.53
2023-05-18T04:43:50.222Z,3.72
2023-05-18T04:46:18.312Z,3.25
2023-05-18T04:48:50.143Z,2.72
2023-05-18T04:51:18.133Z,3.03
2023-05-18T04:53:46.149Z,3.65
2023-05-18T04:56:15.052Z,3.97
2023-05-18T04:58:45.976Z,3.45
2023-05-18T05:01:15.357Z,3.30
2023-05-18T05:03:43.698Z,3.50
2023-05-18T05:06:13.450Z,3.22
2023-05-18T05:08:41.582Z,4.30
2023-05-18T05:11:09.464Z,2.90
2023-05-18T05:13:37.298Z,3.42
2023-05-18T05:16:05.359Z,3.13
2023-05-18T05:18:33.255Z,3.45
2023-05-18T05:21:01.175Z,3.15
2023-05-18T05:23:30.410Z,3.17
2023-05-18T05:25:58.826Z,3.70
2023-05-18T05:28:28.142Z,3.03
2023-05-18T05:30:56.192Z,3.50
2023-05-18T05:33:24.002Z,3.78
2023-05-18T05:35:51.874Z,3.25
2023-05-18T05:38:20.014Z,3.75
2023-05-18T05:40:49.193Z,3.20
2023-05-18T05:43:17.154Z,2.97
2023-05-18T05:45:46.787Z,2.95
2023-05-18T05:48:14.694Z,3.03
2023-05-18T05:50:42.697Z,3.10
2023-05-18T05:53:10.850Z,3.20
2023-05-18T05:55:41.886Z,3.10
2023-05-18T05:58:15.249Z,3.20
2023-05-18T06:00:47.387Z,2.70
2023-05-18T06:03:15.857Z,3.13
2023-05-18T06:05:46.349Z,2.92
2023-05-18T06:08:15.787Z,3.05
2023-05-18T06:10:44.271Z,2.75
2023-05-18T06:13:12.864Z,2.72
2023-05-18T06:15:50.366Z,3.00
2023-05-18T06:18:18.752Z,3.20
2023-05-18T06:20:47.004Z,2.35
2023-05-18T06:23:16.214Z,2.97
2023-05-18T06:26:02.359Z,2.72
2023-05-18T06:28:47.371Z,2.75
2023-05-18T06:31:24.907Z,2.58
2023-05-18T06:34:00.582Z,2.60
2023-05-18T06:36:28.606Z,2.45
2023-05-18T06:38:57.794Z,2.80
2023-05-18T06:41:25.835Z,2.40
2023-05-18T06:43:53.756Z,2.38
2023-05-18T06:46:31.198Z,2.90
2023-05-18T06:49:02.165Z,2.33
2023-05-18T06:51:30.141Z,2.67
2023-05-18T06:53:58.346Z,2.42
2023-05-18T06:56:26.960Z,2.72
2023-05-18T06:58:56.288Z,2.55
2023-05-18T07:01:25.742Z,2.40
2023-05-18T07:03:57.666Z,2.50
2023-05-18T07:06:25.622Z,2.53
2023-05-18T07:08:53.445Z,2.30
2023-05-18T07:11:22.034Z,2.30
2023-05-18T07:13:49.860Z,2.28
2023-05-18T07:16:17.775Z,2.70
2023-05-18T07:18:45.786Z,2.10
2023-05-18T07:21:14.981Z,2.20
2023-05-18T07:23:42.754Z,2.03
2023-05-18T07:26:11.949Z,2.20
2023-05-18T07:28:39.926Z,2.25
2023-05-18T07:31:07.826Z,2.20
2023-05-18T07:33:35.892Z,1.90
2023-05-18T07:36:03.819Z,2.10
2023-05-18T07:38:32.972Z,2.10
2023-05-18T07:41:00.892Z,2.03
2023-05-18T07:43:28.667Z,2.25
2023-05-18T07:45:56.461Z,2.55
2023-05-18T07:48:24.282Z,2.22
2023-05-18T07:50:52.357Z,2.10
2023-05-18T07:53:20.155Z,1.90
2023-05-18T07:55:50.024Z,2.33
2023-05-18T07:58:17.908Z,2.03
2023-05-18T08:00:45.776Z,2.00
2023-05-18T08:03:13.649Z,2.00
2023-05-18T08:05:41.945Z,2.13
2023-05-18T08:08:11.869Z,2.10
2023-05-18T08:10:39.740Z,1.83
2023-05-18T08:13:09.189Z,2.83
2023-05-18T08:15:37.235Z,2.53
2023-05-18T08:18:05.351Z,2.00
2023-05-18T08:20:33.300Z,2.25
2023-05-18T08:23:01.169Z,2.28
2023-05-18T08:25:29.220Z,2.58
2023-05-18T08:27:57.154Z,2.25
2023-05-18T08:30:26.860Z,2.20
2023-05-18T08:32:54.748Z,2.33
2023-05-18T08:35:22.649Z,2.50
2023-05-18T08:37:50.593Z,2.10
2023-05-18T08:40:18.524Z,2.15
2023-05-18T08:42:52.203Z,2.45
2023-05-18T08:45:26.661Z,2.15
2023-05-18T08:47:57.555Z,2.00
2023-05-18T08:52:56.990Z,2.10
2023-05-18T08:55:25.664Z,2.15
2023-05-18T08:57:56.569Z,2.28
2023-05-18T09:02:53.194Z,2.20
2023-05-18T09:05:24.255Z,2.05
2023-05-18T09:07:52.530Z,2.45
2023-05-18T09:10:20.382Z,2.35
2023-05-18T09:12:48.339Z,2.50
2023-05-18T09:15:17.544Z,2.10
2023-05-18T09:17:45.714Z,2.20
2023-05-18T09:20:14.403Z,2.00
2023-05-18T09:22:43.718Z,2.13
2023-05-18T09:25:11.995Z,2.17
2023-05-18T09:27:39.790Z,2.15
2023-05-18T09:30:11.907Z,2.78
2023-05-18T09:32:40.118Z,2.22
2023-05-18T09:35:09.456Z,2.30
2023-05-18T09:37:37.467Z,2.22
2023-05-18T09:40:08.007Z,2.42
2023-05-18T09:42:39.703Z,2.42
2023-05-18T09:45:18.380Z,2.53
2023-05-18T09:47:46.411Z,2.33
2023-05-18T09:50:14.338Z,2.20
2023-05-18T09:52:43.791Z,2.30
2023-05-18T09:55:13.370Z,2.28
2023-05-18T09:57:42.390Z,2.53
2023-05-18T10:00:12.661Z,2.97
2023-05-18T10:02:41.849Z,2.42
2023-05-18T10:05:20.516Z,2.63
2023-05-18T10:07:48.554Z,2.47
2023-05-18T10:10:20.755Z,2.22
2023-05-18T10:12:51.229Z,2.25
2023-05-18T10:15:22.124Z,2.30
2023-05-18T10:20:20.754Z,2.50
2023-05-18T10:22:49.802Z,2.10
2023-05-18T10:25:21.741Z,2.97
2023-05-18T10:27:51.425Z,2.45
2023-05-18T10:30:19.820Z,2.38
2023-05-18T10:32:48.543Z,2.63
2023-05-18T10:35:17.962Z,2.47
2023-05-18T10:37:48.879Z,2.00
2023-05-18T10:40:20.720Z,2.72
2023-05-18T10:42:50.947Z,2.53
2023-05-18T10:45:19.316Z,2.58
2023-05-18T10:47:53.538Z,2.55
2023-05-18T10:50:21.827Z,2.67
2023-05-18T10:52:51.308Z,3.13
2023-05-18T10:55:20.961Z,2.80
2023-05-18T10:57:53.324Z,2.53
2023-05-18T11:00:21.635Z,2.40
2023-05-18T11:02:51.679Z,2.78
2023-05-18T11:05:25.285Z,2.83
2023-05-18T11:08:01.504Z,3.53
2023-05-18T11:10:37.137Z,2.42
2023-05-18T11:13:07.083Z,2.35
2023-05-18T11:16:08.198Z,2.17
2023-05-18T11:18:42.064Z,2.50
2023-05-18T11:21:31.292Z,2.80
2023-05-18T11:24:20.351Z,2.35
2023-05-18T11:26:51.306Z,2.63
2023-05-18T11:29:21.834Z,2.50
2023-05-18T11:31:51.594Z,2.25
2023-05-18T11:34:39.742Z,2.58
2023-05-18T11:37:10.096Z,2.60
2023-05-18T11:39:48.112Z,2.42
2023-05-18T11:42:24.884Z,2.55
2023-05-18T11:44:53.399Z,2.70
2023-05-18T11:47:21.417Z,2.10
2023-05-18T11:49:50.311Z,2.22
2023-05-18T11:52:20.234Z,2.40
2023-05-18T11:54:52.819Z,2.50
2023-05-18T11:57:24.789Z,2.20
2023-05-18T11:59:58.118Z,2.35
2023-05-18T12:02:29.312Z,2.85
2023-05-18T12:05:00.261Z,2.17
2023-05-18T12:07:29.559Z,2.30
2023-05-18T12:09:59.427Z,2.58
2023-05-18T12:12:28.702Z,3.13
2023-05-18T12:14:59.304Z,2.70
2023-05-18T12:17:39.062Z,3.30
2023-05-18T12:20:08.680Z,2.40
2023-05-18T12:22:37.389Z,2.47
2023-05-18T12:25:05.749Z,2.25
2023-05-18T12:27:39.599Z,2.15
2023-05-18T12:30:11.874Z,2.55
2023-05-18T12:32:39.818Z,2.58
2023-05-18T12:35:08.976Z,2.42
2023-05-18T12:37:45.040Z,2.50
2023-05-18T12:40:15.602Z,2.50
2023-05-18T12:42:52.671Z,2.33
2023-05-18T12:45:24.076Z,2.53
2023-05-18T12:47:54.482Z,2.20
2023-05-18T12:50:23.545Z,2.60
2023-05-18T12:52:51.884Z,2.70
2023-05-18T12:55:22.563Z,2.40
2023-05-18T13:00:28.579Z,2.63
2023-05-18T13:03:06.472Z,2.63
2023-05-18T13:05:34.336Z,2.20
2023-05-18T13:08:02.364Z,2.65
2023-05-18T13:10:31.753Z,2.80
2023-05-18T13:13:03.415Z,2.63
2023-05-18T13:15:36.550Z,2.53
2023-05-18T13:18:05.587Z,2.72
2023-05-18T13:20:36.301Z,2.60
2023-05-18T13:23:05.938Z,3.08
2023-05-18T13:25:34.123Z,2.65
2023-05-18T13:28:02.110Z,2.67
2023-05-18T13:30:30.707Z,3.13
2023-05-18T13:33:00.195Z,2.42
2023-05-18T13:35:28.237Z,2.67
2023-05-18T13:37:56.507Z,2.70
2023-05-18T13:40:25.717Z,2.70
2023-05-18T13:42:54.187Z,2.50
2023-05-18T13:45:22.582Z,2.55
2023-05-18T13:47:51.777Z,2.35
2023-05-18T13:50:22.968Z,2.63
2023-05-18T13:52:50.894Z,2.42
2023-05-18T13:55:18.916Z,2.30
2023-05-18T13:57:47.250Z,2.70
2023-05-18T14:00:17.068Z,3.00
2023-05-18T14:02:46.166Z,2.42
2023-05-18T14:05:14.868Z,2.53
2023-05-18T14:07:44.423Z,2.80
2023-05-18T14:10:13.942Z,2.08
2023-05-18T14:12:43.274Z,2.65
2023-05-18T14:15:14.854Z,2.55
2023-05-18T14:17:43.001Z,2.60
2023-05-18T14:20:11.477Z,2.70
2023-05-18T14:22:39.611Z,2.53
2023-05-18T14:25:09.735Z,2.55
2023-05-18T14:27:37.585Z,2.50
2023-05-18T14:30:06.588Z,2.58
2023-05-18T14:32:34.445Z,2.60
2023-05-18T14:35:02.842Z,2.75
2023-05-18T14:37:30.690Z,2.67
2023-05-18T14:39:58.490Z,2.53
2023-05-18T14:42:27.626Z,2.70
2023-05-18T14:44:55.421Z,2.70
2023-05-18T14:47:23.262Z,2.53
2023-05-18T14:49:51.067Z,2.70
2023-05-18T14:52:18.915Z,2.80
2023-05-18T14:54:47.795Z,2.65
2023-05-18T14:57:15.602Z,2.88
2023-05-18T14:59:44.764Z,2.70
2023-05-18T15:02:12.652Z,3.03
2023-05-18T15:04:40.475Z,2.35
2023-05-18T15:07:08.619Z,2.40
2023-05-18T15:09:36.485Z,2.90
2023-05-18T15:12:04.783Z,2.50
2023-05-18T15:14:32.883Z,2.70
2023-05-18T15:17:02.053Z,2.70
2023-05-18T15:19:30.280Z,2.45
2023-05-18T15:21:58.182Z,2.50
2023-05-18T15:24:26.233Z,2.83
2023-05-18T15:26:54.114Z,2.97
2023-05-18T15:29:22.006Z,2.60
2023-05-18T15:31:51.308Z,2.55
2023-05-18T15:34:20.735Z,2.47
2023-05-18T15:36:48.761Z,2.50
2023-05-18T15:39:16.634Z,2.65
2023-05-18T15:41:44.454Z,2.92
2023-05-18T15:44:12.285Z,2.70
2023-05-18T15:46:40.133Z,3.47
2023-05-18T15:49:08.095Z,3.00
2023-05-18T15:51:37.276Z,2.55
2023-05-18T15:54:05.150Z,2.58
2023-05-18T15:56:33.099Z,2.67
2023-05-18T15:59:00.905Z,2.55
2023-05-18T16:01:28.721Z,2.65
2023-05-18T16:03:56.585Z,2.20
2023-05-18T16:06:24.558Z,2.63
2023-05-18T16:08:53.740Z,2.45
2023-05-18T16:11:21.537Z,2.67
2023-05-18T16:13:50.276Z,2.50
2023-05-18T16:16:19.070Z,2.63
2023-05-18T16:18:47.309Z,2.65
2023-05-18T16:21:15.115Z,2.83
2023-05-18T16:23:43.006Z,2.90
2023-05-18T16:26:12.457Z,2.92
2023-05-18T16:28:40.299Z,2.80
2023-05-18T16:31:10.951Z,2.90
2023-05-18T16:33:39.092Z,2.60
2023-05-18T16:36:07.854Z,2.90
2023-05-18T16:38:37.428Z,2.80
2023-05-18T16:41:05.986Z,2.58
2023-05-18T16:43:35.872Z,3.20
2023-05-18T16:46:03.680Z,3.25
2023-05-18T16:48:31.494Z,2.65
2023-05-18T16:50:59.279Z,2.63
2023-05-18T16:53:27.097Z,2.60
2023-05-18T16:55:54.956Z,2.60
2023-05-18T16:58:22.768Z,2.25
2023-05-18T17:00:52.119Z,3.03
2023-05-18T17:03:20.144Z,2.88
2023-05-18T17:05:48.685Z,3.05
2023-05-18T17:08:16.501Z,3.10
2023-05-18T17:10:44.327Z,3.05
2023-05-18T17:13:12.116Z,2.85
2023-05-18T17:15:40.038Z,2.90
2023-05-18T17:18:09.277Z,3.35
2023-05-18T17:20:37.180Z,2.78
2023-05-18T17:23:05.013Z,2.90
2023-05-18T17:25:32.902Z,2.90
2023-05-18T17:28:00.850Z,2.78
2023-05-18T17:30:28.734Z,2.70
2023-05-18T17:32:56.733Z,2.90
2023-05-18T17:35:26.106Z,3.05
2023-05-18T17:37:54.908Z,2.70
2023-05-18T17:40:22.926Z,2.85
2023-05-18T17:42:50.857Z,2.83
2023-05-18T17:45:18.933Z,2.80
2023-05-18T17:47:47.015Z,2.53
2023-05-18T17:50:15.259Z,2.55
2023-05-18T17:52:44.708Z,2.85
2023-05-18T17:55:13.017Z,2.60
2023-05-18T17:57:45.199Z,2.67
2023-05-18T18:00:15.641Z,3.00
2023-05-18T18:02:43.500Z,3.08
2023-05-18T18:05:11.333Z,2.60
2023-05-18T18:07:40.118Z,2.90
2023-05-18T18:10:10.441Z,3.05
2023-05-18T18:12:38.249Z,2.97
2023-05-18T18:15:06.774Z,2.60
2023-05-18T18:17:34.699Z,2.80
2023-05-18T18:20:02.569Z,2.88
2023-05-18T18:22:30.407Z,2.80
2023-05-18T18:24:58.342Z,4.05
2023-05-18T18:27:27.617Z,2.90
2023-05-18T18:29:56.325Z,2.90
2023-05-18T18:32:24.201Z,3.38
2023-05-18T18:34:52.109Z,2.90
2023-05-18T18:37:19.931Z,2.78
2023-05-18T18:39:47.693Z,2.60
2023-05-18T18:42:18.672Z,2.80
2023-05-18T18:44:52.818Z,2.78
2023-05-18T18:47:20.764Z,2.97
2023-05-18T18:49:48.721Z,2.75
2023-05-18T18:52:16.659Z,3.10
2023-05-18T18:54:45.116Z,3.13
2023-05-18T18:57:13.108Z,2.90
2023-05-18T18:59:40.987Z,3.35
2023-05-18T19:02:10.241Z,3.90
2023-05-18T19:04:38.112Z,2.80
2023-05-18T19:07:06.168Z,3.22
2023-05-18T19:09:36.055Z,2.97
2023-05-18T19:12:03.896Z,3.60
2023-05-18T19:14:31.764Z,3.83
2023-05-18T19:16:59.585Z,3.28
2023-05-18T19:19:29.634Z,3.03
2023-05-18T19:21:57.548Z,3.03
2023-05-18T19:24:25.419Z,3.35
2023-05-18T19:26:53.249Z,3.40
2023-05-18T19:29:21.614Z,3.40
2023-05-18T19:31:49.439Z,3.15
2023-05-18T19:34:17.281Z,3.50
2023-05-18T19:36:46.444Z,3.58
2023-05-18T19:39:16.185Z,3.10
2023-05-18T19:41:44.158Z,3.58
2023-05-18T19:44:12.011Z,3.20
2023-05-18T19:46:40.466Z,3.45
2023-05-18T19:49:10.066Z,3.53
2023-05-18T19:51:38.067Z,3.22
2023-05-18T19:54:07.328Z,3.92
2023-05-18T19:56:36.281Z,3.20
2023-05-18T19:59:04.155Z,2.80
2023-05-18T20:01:32.184Z,3.58
2023-05-18T20:04:00.427Z,4.25
2023-05-18T20:06:29.384Z,3.63
2023-05-18T20:08:57.206Z,3.50
2023-05-18T20:11:26.328Z,3.67
2023-05-18T20:13:54.149Z,3.50
2023-05-18T20:16:22.080Z,3.50
2023-05-18T20:18:50.186Z,3.47
2023-05-18T20:21:18.545Z,3.72
2023-05-18T20:23:47.367Z,3.40
2023-05-18T20:26:15.223Z,3.33
2023-05-18T20:28:44.349Z,3.60
2023-05-18T20:31:12.141Z,3.38
2023-05-18T20:33:40.160Z,3.38
2023-05-18T20:36:08.943Z,3.20
2023-05-18T20:38:38.667Z,2.97
2023-05-18T20:41:08.005Z,3.17
2023-05-18T20:43:37.661Z,3.65
2023-05-18T20:46:08.146Z,3.20
2023-05-18T20:48:36.066Z,3.42
2023-05-18T20:51:03.914Z,3.10
2023-05-18T20:53:31.707Z,3.15
2023-05-18T20:56:01.343Z,3.40
2023-05-18T20:58:29.271Z,3.50
2023-05-18T21:00:57.120Z,3.05
2023-05-18T21:03:26.504Z,3.03
2023-05-18T21:05:54.624Z,3.35
2023-05-18T21:08:22.383Z,3.42
2023-05-18T21:10:50.243Z,3.50
2023-05-18T21:13:18.122Z,3.25
2023-05-18T21:15:46.028Z,3.03
2023-05-18T21:18:13.924Z,3.67
2023-05-18T21:20:43.158Z,3.50
2023-05-18T21:23:10.949Z,3.60
2023-05-18T21:25:38.882Z,3.30
2023-05-18T21:28:06.710Z,3.35
2023-05-18T21:30:34.516Z,3.38
2023-05-18T21:33:02.900Z,3.22
2023-05-18T21:35:31.017Z,3.63
2023-05-18T21:38:00.551Z,3.63
2023-05-18T21:40:28.377Z,3.17
2023-05-18T21:42:57.626Z,3.55
2023-05-18T21:45:25.513Z,3.35
2023-05-18T21:47:53.362Z,3.05
2023-05-18T21:50:21.262Z,3.53
2023-05-18T21:52:49.135Z,3.25
2023-05-18T21:55:18.356Z,3.42
2023-05-18T21:57:46.185Z,3.60
2023-05-18T22:00:17.275Z,3.00
2023-05-18T22:05:12.797Z,3.20
2023-05-18T22:07:40.702Z,3.10
2023-05-18T22:10:09.026Z,3.15
2023-05-18T22:12:40.387Z,3.40
2023-05-18T22:15:10.420Z,3.72
2023-05-18T22:17:38.770Z,3.20
2023-05-18T22:20:09.557Z,3.30
2023-05-18T22:22:37.661Z,3.20
2023-05-18T22:25:06.423Z,3.45
2023-05-18T22:27:36.414Z,3.80
2023-05-18T22:30:07.124Z,3.60
2023-05-18T22:32:35.172Z,3.30
2023-05-18T22:35:04.127Z,3.47
2023-05-18T22:37:31.977Z,3.60
2023-05-18T22:39:59.759Z,3.60
2023-05-18T22:42:27.625Z,3.40
2023-05-18T22:44:55.637Z,3.45
2023-05-18T22:47:25.020Z,3.78
2023-05-18T22:49:52.807Z,3.22
2023-05-18T22:52:20.687Z,3.58
2023-05-18T22:54:48.886Z,3.72
2023-05-18T22:57:16.728Z,3.85
2023-05-18T22:59:44.560Z,3.80
2023-05-18T23:02:12.500Z,3.55
2023-05-18T23:04:41.760Z,3.70
2023-05-18T23:07:09.650Z,3.63
2023-05-18T23:09:39.760Z,3.50
2023-05-18T23:12:10.171Z,3.75
2023-05-18T23:14:38.052Z,4.00
2023-05-18T23:17:06.495Z,3.88
2023-05-18T23:19:36.050Z,3.40
2023-05-18T23:22:05.661Z,3.30
2023-05-18T23:24:33.486Z,3.75
2023-05-18T23:27:01.282Z,3.90
2023-05-18T23:29:29.068Z,4.13
2023-05-18T23:31:56.847Z,3.80
2023-05-18T23:34:25.118Z,4.07
2023-05-18T23:36:57.403Z,4.07
2023-05-18T23:39:27.942Z,3.75
2023-05-18T23:41:59.211Z,3.83
2023-05-18T23:44:27.504Z,3.70
2023-05-18T23:46:56.123Z,4.00
2023-05-18T23:49:24.420Z,4.00
2023-05-18T23:51:54.917Z,4.00
2023-05-18T23:54:23.134Z,3.80
2023-05-18T23:56:52.926Z,3.60
2023-05-18T23:59:21.221Z,4.05
